sensor_id;sensor_type;location;lat;lon;timestamp;P1;durP1;ratioP1;P2;durP2;ratioP2
84723;SDS011;74944;52.322;16.918;2023-12-20T00:01:50;15.57;;;9.77;;
84723;SDS011;74944;52.322;16.918;2023-12-20T00:04:16;14.75;;;9.18;;
84723;SDS011;74944;52.322;16.918;2023-12-20T00:06:41;16.02;;;10.57;;
84723;SDS011;74944;52.322;16.918;2023-12-20T00:09:07;14.27;;;8.93;;
84723;SDS011;74944;52.322;16.918;2023-12-20T00:11:33;14.10;;;8.50;;
84723;SDS011;74944;52.322;16.918;2023-12-20T00:13:59;16.90;;;10.85;;
84723;SDS011;74944;52.322;16.918;2023-12-20T00:16:25;17.05;;;10.02;;
84723;SDS011;74944;52.322;16.918;2023-12-20T00:18:51;15.70;;;9.40;;
84723;SDS011;74944;52.322;16.918;2023-12-20T00:21:17;14.82;;;8.75;;
84723;SDS011;74944;52.322;16.918;2023-12-20T00:23:42;13.73;;;8.25;;
84723;SDS011;74944;52.322;16.918;2023-12-20T00:26:08;14.23;;;9.20;;
84723;SDS011;74944;52.322;16.918;2023-12-20T00:28:34;13.45;;;8.73;;
84723;SDS011;74944;52.322;16.918;2023-12-20T00:31:00;13.55;;;8.98;;
84723;SDS011;74944;52.322;16.918;2023-12-20T00:33:25;15.20;;;8.05;;
84723;SDS011;74944;52.322;16.918;2023-12-20T00:35:51;13.68;;;8.75;;
84723;SDS011;74944;52.322;16.918;2023-12-20T00:38:16;13.20;;;8.38;;
84723;SDS011;74944;52.322;16.918;2023-12-20T00:40:42;13.80;;;8.82;;
84723;SDS011;74944;52.322;16.918;2023-12-20T00:43:08;14.25;;;8.43;;
84723;SDS011;74944;52.322;16.918;2023-12-20T00:45:34;14.20;;;9.25;;
84723;SDS011;74944;52.322;16.918;2023-12-20T00:47:59;13.73;;;10.25;;
84723;SDS011;74944;52.322;16.918;2023-12-20T00:50:25;12.20;;;7.35;;
84723;SDS011;74944;52.322;16.918;2023-12-20T00:52:51;11.68;;;7.25;;
84723;SDS011;74944;52.322;16.918;2023-12-20T00:55:17;13.52;;;7.65;;
84723;SDS011;74944;52.322;16.918;2023-12-20T00:57:42;11.25;;;7.43;;
84723;SDS011;74944;52.322;16.918;2023-12-20T01:00:08;11.60;;;8.00;;
84723;SDS011;74944;52.322;16.918;2023-12-20T01:02:38;10.98;;;6.90;;
84723;SDS011;74944;52.322;16.918;2023-12-20T01:05:04;10.93;;;6.70;;
84723;SDS011;74944;52.322;16.918;2023-12-20T01:07:30;11.18;;;6.57;;
84723;SDS011;74944;52.322;16.918;2023-12-20T01:09:56;9.80;;;6.80;;
84723;SDS011;74944;52.322;16.918;2023-12-20T01:12:21;12.02;;;6.50;;
84723;SDS011;74944;52.322;16.918;2023-12-20T01:14:47;12.70;;;9.07;;
84723;SDS011;74944;52.322;16.918;2023-12-20T01:17:13;13.82;;;7.28;;
84723;SDS011;74944;52.322;16.918;2023-12-20T01:19:39;11.98;;;7.75;;
84723;SDS011;74944;52.322;16.918;2023-12-20T01:22:06;12.00;;;6.68;;
84723;SDS011;74944;52.322;16.918;2023-12-20T01:24:31;9.98;;;6.55;;
84723;SDS011;74944;52.322;16.918;2023-12-20T01:26:57;11.05;;;6.95;;
84723;SDS011;74944;52.322;16.918;2023-12-20T01:29:23;10.20;;;6.40;;
84723;SDS011;74944;52.322;16.918;2023-12-20T01:31:49;11.65;;;7.35;;
84723;SDS011;74944;52.322;16.918;2023-12-20T01:34:15;10.23;;;6.47;;
84723;SDS011;74944;52.322;16.918;2023-12-20T01:36:42;10.40;;;6.55;;
84723;SDS011;74944;52.322;16.918;2023-12-20T01:39:08;11.25;;;6.90;;
84723;SDS011;74944;52.322;16.918;2023-12-20T01:41:34;10.07;;;6.68;;
84723;SDS011;74944;52.322;16.918;2023-12-20T01:44:00;10.50;;;6.72;;
84723;SDS011;74944;52.322;16.918;2023-12-20T01:46:25;10.10;;;6.28;;
84723;SDS011;74944;52.322;16.918;2023-12-20T01:48:52;11.10;;;6.55;;
84723;SDS011;74944;52.322;16.918;2023-12-20T01:51:18;11.23;;;6.68;;
84723;SDS011;74944;52.322;16.918;2023-12-20T01:53:45;10.57;;;6.93;;
84723;SDS011;74944;52.322;16.918;2023-12-20T01:56:11;10.05;;;6.30;;
84723;SDS011;74944;52.322;16.918;2023-12-20T01:58:39;10.93;;;7.13;;
84723;SDS011;74944;52.322;16.918;2023-12-20T02:01:09;12.45;;;7.05;;
84723;SDS011;74944;52.322;16.918;2023-12-20T02:03:36;12.98;;;7.20;;
84723;SDS011;74944;52.322;16.918;2023-12-20T02:06:02;10.90;;;6.68;;
84723;SDS011;74944;52.322;16.918;2023-12-20T02:08:29;12.65;;;7.32;;
84723;SDS011;74944;52.322;16.918;2023-12-20T02:10:55;12.35;;;7.13;;
84723;SDS011;74944;52.322;16.918;2023-12-20T02:13:21;9.75;;;6.43;;
84723;SDS011;74944;52.322;16.918;2023-12-20T02:15:47;10.60;;;6.82;;
84723;SDS011;74944;52.322;16.918;2023-12-20T02:18:13;11.68;;;6.93;;
84723;SDS011;74944;52.322;16.918;2023-12-20T02:20:41;10.77;;;6.00;;
84723;SDS011;74944;52.322;16.918;2023-12-20T02:23:07;11.48;;;7.45;;
84723;SDS011;74944;52.322;16.918;2023-12-20T02:25:33;13.13;;;6.97;;
84723;SDS011;74944;52.322;16.918;2023-12-20T02:27:59;10.68;;;6.70;;
84723;SDS011;74944;52.322;16.918;2023-12-20T02:30:24;10.55;;;6.43;;
84723;SDS011;74944;52.322;16.918;2023-12-20T02:32:50;8.80;;;5.43;;
84723;SDS011;74944;52.322;16.918;2023-12-20T02:35:17;11.18;;;6.63;;
84723;SDS011;74944;52.322;16.918;2023-12-20T02:37:43;10.75;;;7.88;;
84723;SDS011;74944;52.322;16.918;2023-12-20T02:40:09;11.18;;;7.13;;
84723;SDS011;74944;52.322;16.918;2023-12-20T02:42:36;10.60;;;5.53;;
84723;SDS011;74944;52.322;16.918;2023-12-20T02:45:01;11.40;;;6.82;;
84723;SDS011;74944;52.322;16.918;2023-12-20T02:47:27;11.45;;;6.85;;
84723;SDS011;74944;52.322;16.918;2023-12-20T02:49:55;10.00;;;5.68;;
84723;SDS011;74944;52.322;16.918;2023-12-20T02:52:21;11.07;;;6.25;;
84723;SDS011;74944;52.322;16.918;2023-12-20T02:54:51;11.80;;;6.72;;
84723;SDS011;74944;52.322;16.918;2023-12-20T02:57:17;11.57;;;6.18;;
84723;SDS011;74944;52.322;16.918;2023-12-20T02:59:42;11.52;;;6.25;;
84723;SDS011;74944;52.322;16.918;2023-12-20T03:02:08;9.38;;;5.60;;
84723;SDS011;74944;52.322;16.918;2023-12-20T03:04:34;11.20;;;5.90;;
84723;SDS011;74944;52.322;16.918;2023-12-20T03:06:59;10.45;;;6.20;;
84723;SDS011;74944;52.322;16.918;2023-12-20T03:09:25;10.10;;;5.95;;
84723;SDS011;74944;52.322;16.918;2023-12-20T03:11:51;10.70;;;6.63;;
84723;SDS011;74944;52.322;16.918;2023-12-20T03:14:16;9.98;;;6.20;;
84723;SDS011;74944;52.322;16.918;2023-12-20T03:16:46;10.45;;;6.63;;
84723;SDS011;74944;52.322;16.918;2023-12-20T03:19:12;11.60;;;6.95;;
84723;SDS011;74944;52.322;16.918;2023-12-20T03:21:38;11.43;;;7.05;;
84723;SDS011;74944;52.322;16.918;2023-12-20T03:24:04;12.25;;;6.57;;
84723;SDS011;74944;52.322;16.918;2023-12-20T03:26:30;12.48;;;7.03;;
84723;SDS011;74944;52.322;16.918;2023-12-20T03:28:55;9.48;;;5.78;;
84723;SDS011;74944;52.322;16.918;2023-12-20T03:31:21;11.30;;;5.80;;
84723;SDS011;74944;52.322;16.918;2023-12-20T03:33:47;10.95;;;5.60;;
84723;SDS011;74944;52.322;16.918;2023-12-20T03:36:13;10.77;;;5.90;;
84723;SDS011;74944;52.322;16.918;2023-12-20T03:38:38;9.60;;;5.53;;
84723;SDS011;74944;52.322;16.918;2023-12-20T03:41:04;9.52;;;5.80;;
84723;SDS011;74944;52.322;16.918;2023-12-20T03:43:29;10.50;;;6.05;;
84723;SDS011;74944;52.322;16.918;2023-12-20T03:45:55;11.05;;;5.78;;
84723;SDS011;74944;52.322;16.918;2023-12-20T03:48:21;11.77;;;6.63;;
84723;SDS011;74944;52.322;16.918;2023-12-20T03:50:47;10.50;;;5.30;;
84723;SDS011;74944;52.322;16.918;2023-12-20T03:53:12;10.52;;;6.05;;
84723;SDS011;74944;52.322;16.918;2023-12-20T03:55:38;10.68;;;5.75;;
84723;SDS011;74944;52.322;16.918;2023-12-20T03:58:04;10.10;;;5.43;;
84723;SDS011;74944;52.322;16.918;2023-12-20T04:00:29;10.57;;;5.93;;
84723;SDS011;74944;52.322;16.918;2023-12-20T04:02:55;10.25;;;5.68;;
84723;SDS011;74944;52.322;16.918;2023-12-20T04:05:21;9.13;;;5.07;;
84723;SDS011;74944;52.322;16.918;2023-12-20T04:07:46;9.90;;;6.30;;
84723;SDS011;74944;52.322;16.918;2023-12-20T04:10:12;9.90;;;5.95;;
84723;SDS011;74944;52.322;16.918;2023-12-20T04:12:38;10.95;;;5.88;;
84723;SDS011;74944;52.322;16.918;2023-12-20T04:15:04;9.98;;;6.10;;
84723;SDS011;74944;52.322;16.918;2023-12-20T04:17:34;9.48;;;5.28;;
84723;SDS011;74944;52.322;16.918;2023-12-20T04:20:01;9.32;;;5.05;;
84723;SDS011;74944;52.322;16.918;2023-12-20T04:22:27;9.30;;;5.20;;
84723;SDS011;74944;52.322;16.918;2023-12-20T04:24:53;10.25;;;5.30;;
84723;SDS011;74944;52.322;16.918;2023-12-20T04:27:19;8.18;;;4.75;;
84723;SDS011;74944;52.322;16.918;2023-12-20T04:29:44;10.30;;;5.40;;
84723;SDS011;74944;52.322;16.918;2023-12-20T04:32:10;11.48;;;5.88;;
84723;SDS011;74944;52.322;16.918;2023-12-20T04:34:36;11.05;;;5.90;;
84723;SDS011;74944;52.322;16.918;2023-12-20T04:37:02;12.98;;;6.18;;
84723;SDS011;74944;52.322;16.918;2023-12-20T04:39:28;11.68;;;5.70;;
84723;SDS011;74944;52.322;16.918;2023-12-20T04:41:53;11.55;;;6.85;;
84723;SDS011;74944;52.322;16.918;2023-12-20T04:44:19;11.70;;;6.43;;
84723;SDS011;74944;52.322;16.918;2023-12-20T04:46:45;10.25;;;5.07;;
84723;SDS011;74944;52.322;16.918;2023-12-20T04:49:11;11.20;;;5.40;;
84723;SDS011;74944;52.322;16.918;2023-12-20T04:51:36;11.48;;;6.10;;
84723;SDS011;74944;52.322;16.918;2023-12-20T04:54:03;10.00;;;5.78;;
84723;SDS011;74944;52.322;16.918;2023-12-20T04:56:29;9.50;;;5.25;;
84723;SDS011;74944;52.322;16.918;2023-12-20T04:58:55;9.77;;;5.45;;
84723;SDS011;74944;52.322;16.918;2023-12-20T05:01:20;11.80;;;6.32;;
84723;SDS011;74944;52.322;16.918;2023-12-20T05:03:47;10.48;;;6.07;;
84723;SDS011;74944;52.322;16.918;2023-12-20T05:06:12;9.50;;;5.60;;
84723;SDS011;74944;52.322;16.918;2023-12-20T05:08:38;11.60;;;5.47;;
84723;SDS011;74944;52.322;16.918;2023-12-20T05:11:04;9.55;;;4.93;;
84723;SDS011;74944;52.322;16.918;2023-12-20T05:13:30;11.55;;;6.75;;
84723;SDS011;74944;52.322;16.918;2023-12-20T05:15:55;11.23;;;5.40;;
84723;SDS011;74944;52.322;16.918;2023-12-20T05:18:21;10.68;;;5.40;;
84723;SDS011;74944;52.322;16.918;2023-12-20T05:20:48;11.20;;;6.00;;
84723;SDS011;74944;52.322;16.918;2023-12-20T05:23:15;9.85;;;5.40;;
84723;SDS011;74944;52.322;16.918;2023-12-20T05:25:40;12.68;;;6.57;;
84723;SDS011;74944;52.322;16.918;2023-12-20T05:28:06;10.20;;;5.45;;
84723;SDS011;74944;52.322;16.918;2023-12-20T05:30:32;9.90;;;5.32;;
84723;SDS011;74944;52.322;16.918;2023-12-20T05:32:59;8.75;;;4.40;;
84723;SDS011;74944;52.322;16.918;2023-12-20T05:35:25;12.52;;;5.45;;
84723;SDS011;74944;52.322;16.918;2023-12-20T05:37:51;10.18;;;5.28;;
84723;SDS011;74944;52.322;16.918;2023-12-20T05:40:16;11.13;;;5.32;;
84723;SDS011;74944;52.322;16.918;2023-12-20T05:42:42;12.48;;;5.82;;
84723;SDS011;74944;52.322;16.918;2023-12-20T05:45:09;10.85;;;5.45;;
84723;SDS011;74944;52.322;16.918;2023-12-20T05:47:35;9.38;;;4.45;;
84723;SDS011;74944;52.322;16.918;2023-12-20T05:50:00;9.05;;;5.05;;
84723;SDS011;74944;52.322;16.918;2023-12-20T05:52:29;8.32;;;4.10;;
84723;SDS011;74944;52.322;16.918;2023-12-20T05:54:55;9.18;;;4.07;;
84723;SDS011;74944;52.322;16.918;2023-12-20T05:57:23;11.82;;;7.07;;
84723;SDS011;74944;52.322;16.918;2023-12-20T05:59:48;9.52;;;4.50;;
84723;SDS011;74944;52.322;16.918;2023-12-20T06:02:14;8.70;;;4.35;;
84723;SDS011;74944;52.322;16.918;2023-12-20T06:04:42;9.07;;;4.50;;
84723;SDS011;74944;52.322;16.918;2023-12-20T06:07:11;9.18;;;4.85;;
84723;SDS011;74944;52.322;16.918;2023-12-20T06:09:37;9.23;;;4.40;;
84723;SDS011;74944;52.322;16.918;2023-12-20T06:12:04;8.82;;;4.13;;
84723;SDS011;74944;52.322;16.918;2023-12-20T06:14:30;8.90;;;4.22;;
84723;SDS011;74944;52.322;16.918;2023-12-20T06:16:56;8.40;;;4.53;;
84723;SDS011;74944;52.322;16.918;2023-12-20T06:19:22;7.55;;;4.80;;
84723;SDS011;74944;52.322;16.918;2023-12-20T06:21:48;6.97;;;4.15;;
84723;SDS011;74944;52.322;16.918;2023-12-20T06:24:14;7.65;;;5.13;;
84723;SDS011;74944;52.322;16.918;2023-12-20T06:26:40;7.85;;;4.30;;
84723;SDS011;74944;52.322;16.918;2023-12-20T06:29:05;8.60;;;4.93;;
84723;SDS011;74944;52.322;16.918;2023-12-20T06:31:31;7.63;;;4.70;;
84723;SDS011;74944;52.322;16.918;2023-12-20T06:33:58;8.63;;;4.68;;
84723;SDS011;74944;52.322;16.918;2023-12-20T06:36:25;8.27;;;4.00;;
84723;SDS011;74944;52.322;16.918;2023-12-20T06:38:51;9.43;;;4.97;;
84723;SDS011;74944;52.322;16.918;2023-12-20T06:41:17;8.95;;;4.90;;
84723;SDS011;74944;52.322;16.918;2023-12-20T06:43:43;8.10;;;4.35;;
84723;SDS011;74944;52.322;16.918;2023-12-20T06:46:09;9.93;;;6.55;;
84723;SDS011;74944;52.322;16.918;2023-12-20T06:48:35;9.45;;;5.18;;
84723;SDS011;74944;52.322;16.918;2023-12-20T06:51:01;8.30;;;4.65;;
84723;SDS011;74944;52.322;16.918;2023-12-20T06:53:27;11.43;;;6.93;;
84723;SDS011;74944;52.322;16.918;2023-12-20T06:55:53;9.23;;;5.10;;
84723;SDS011;74944;52.322;16.918;2023-12-20T06:58:21;10.13;;;5.47;;
84723;SDS011;74944;52.322;16.918;2023-12-20T07:00:47;8.25;;;4.75;;
84723;SDS011;74944;52.322;16.918;2023-12-20T07:03:13;7.32;;;4.50;;
84723;SDS011;74944;52.322;16.918;2023-12-20T07:05:38;9.13;;;4.78;;
84723;SDS011;74944;52.322;16.918;2023-12-20T07:08:06;9.93;;;5.07;;
84723;SDS011;74944;52.322;16.918;2023-12-20T07:10:32;8.32;;;4.47;;
84723;SDS011;74944;52.322;16.918;2023-12-20T07:12:57;6.22;;;3.72;;
84723;SDS011;74944;52.322;16.918;2023-12-20T07:15:24;7.65;;;4.78;;
84723;SDS011;74944;52.322;16.918;2023-12-20T07:17:49;7.55;;;4.10;;
84723;SDS011;74944;52.322;16.918;2023-12-20T07:20:15;8.15;;;4.78;;
84723;SDS011;74944;52.322;16.918;2023-12-20T07:22:41;9.20;;;4.95;;
84723;SDS011;74944;52.322;16.918;2023-12-20T07:25:07;9.43;;;4.78;;
84723;SDS011;74944;52.322;16.918;2023-12-20T07:27:33;8.73;;;5.05;;
84723;SDS011;74944;52.322;16.918;2023-12-20T07:29:59;9.52;;;4.22;;
84723;SDS011;74944;52.322;16.918;2023-12-20T07:32:24;8.52;;;4.53;;
84723;SDS011;74944;52.322;16.918;2023-12-20T07:34:50;10.90;;;4.50;;
84723;SDS011;74944;52.322;16.918;2023-12-20T07:37:16;10.45;;;5.57;;
84723;SDS011;74944;52.322;16.918;2023-12-20T07:39:42;8.00;;;5.10;;
84723;SDS011;74944;52.322;16.918;2023-12-20T07:42:08;8.93;;;5.05;;
84723;SDS011;74944;52.322;16.918;2023-12-20T07:44:34;9.32;;;5.35;;
84723;SDS011;74944;52.322;16.918;2023-12-20T07:47:03;8.13;;;4.70;;
84723;SDS011;74944;52.322;16.918;2023-12-20T07:49:30;8.98;;;5.15;;
84723;SDS011;74944;52.322;16.918;2023-12-20T07:51:57;10.93;;;5.15;;
84723;SDS011;74944;52.322;16.918;2023-12-20T07:54:23;9.18;;;4.75;;
84723;SDS011;74944;52.322;16.918;2023-12-20T07:56:48;9.20;;;5.28;;
84723;SDS011;74944;52.322;16.918;2023-12-20T07:59:14;7.82;;;4.38;;
84723;SDS011;74944;52.322;16.918;2023-12-20T08:01:40;10.30;;;5.78;;
84723;SDS011;74944;52.322;16.918;2023-12-20T08:04:06;8.95;;;4.55;;
84723;SDS011;74944;52.322;16.918;2023-12-20T08:06:31;7.70;;;4.30;;
84723;SDS011;74944;52.322;16.918;2023-12-20T08:08:57;9.27;;;4.88;;
84723;SDS011;74944;52.322;16.918;2023-12-20T08:11:22;10.52;;;5.75;;
84723;SDS011;74944;52.322;16.918;2023-12-20T08:13:50;8.43;;;5.15;;
84723;SDS011;74944;52.322;16.918;2023-12-20T08:16:16;8.82;;;4.97;;
84723;SDS011;74944;52.322;16.918;2023-12-20T08:18:43;12.75;;;7.80;;
84723;SDS011;74944;52.322;16.918;2023-12-20T08:21:09;12.85;;;7.53;;
84723;SDS011;74944;52.322;16.918;2023-12-20T08:23:35;14.13;;;6.45;;
84723;SDS011;74944;52.322;16.918;2023-12-20T08:26:09;12.18;;;6.50;;
84723;SDS011;74944;52.322;16.918;2023-12-20T08:28:36;11.95;;;6.05;;
84723;SDS011;74944;52.322;16.918;2023-12-20T08:31:02;11.95;;;5.50;;
84723;SDS011;74944;52.322;16.918;2023-12-20T08:33:28;13.18;;;6.60;;
84723;SDS011;74944;52.322;16.918;2023-12-20T08:35:53;8.60;;;4.97;;
84723;SDS011;74944;52.322;16.918;2023-12-20T08:38:19;9.48;;;5.85;;
84723;SDS011;74944;52.322;16.918;2023-12-20T08:40:45;10.10;;;5.57;;
84723;SDS011;74944;52.322;16.918;2023-12-20T08:43:10;11.15;;;4.88;;
84723;SDS011;74944;52.322;16.918;2023-12-20T08:45:36;14.43;;;5.35;;
84723;SDS011;74944;52.322;16.918;2023-12-20T08:48:02;13.63;;;5.60;;
84723;SDS011;74944;52.322;16.918;2023-12-20T08:50:28;13.15;;;5.38;;
84723;SDS011;74944;52.322;16.918;2023-12-20T08:52:54;13.93;;;5.90;;
84723;SDS011;74944;52.322;16.918;2023-12-20T08:55:20;9.98;;;4.85;;
84723;SDS011;74944;52.322;16.918;2023-12-20T08:57:46;13.18;;;4.75;;
84723;SDS011;74944;52.322;16.918;2023-12-20T09:00:12;11.55;;;5.50;;
84723;SDS011;74944;52.322;16.918;2023-12-20T09:02:38;8.10;;;4.25;;
84723;SDS011;74944;52.322;16.918;2023-12-20T09:05:04;10.35;;;4.68;;
84723;SDS011;74944;52.322;16.918;2023-12-20T09:07:30;9.13;;;4.20;;
84723;SDS011;74944;52.322;16.918;2023-12-20T09:09:57;8.68;;;5.18;;
84723;SDS011;74944;52.322;16.918;2023-12-20T09:12:24;8.88;;;4.00;;
84723;SDS011;74944;52.322;16.918;2023-12-20T09:14:50;6.15;;;3.35;;
84723;SDS011;74944;52.322;16.918;2023-12-20T09:17:17;7.00;;;3.13;;
84723;SDS011;74944;52.322;16.918;2023-12-20T09:19:43;6.38;;;3.63;;
84723;SDS011;74944;52.322;16.918;2023-12-20T09:22:10;8.68;;;4.38;;
84723;SDS011;74944;52.322;16.918;2023-12-20T09:24:36;10.73;;;3.60;;
84723;SDS011;74944;52.322;16.918;2023-12-20T09:27:02;6.93;;;3.47;;
84723;SDS011;74944;52.322;16.918;2023-12-20T09:29:28;7.43;;;4.10;;
84723;SDS011;74944;52.322;16.918;2023-12-20T09:31:54;7.32;;;3.80;;
84723;SDS011;74944;52.322;16.918;2023-12-20T09:34:20;8.57;;;5.30;;
84723;SDS011;74944;52.322;16.918;2023-12-20T09:36:46;8.57;;;3.88;;
84723;SDS011;74944;52.322;16.918;2023-12-20T09:39:13;10.18;;;4.03;;
84723;SDS011;74944;52.322;16.918;2023-12-20T09:41:49;5.40;;;3.47;;
84723;SDS011;74944;52.322;16.918;2023-12-20T09:44:26;8.30;;;4.28;;
84723;SDS011;74944;52.322;16.918;2023-12-20T09:46:52;10.35;;;3.78;;
84723;SDS011;74944;52.322;16.918;2023-12-20T09:49:19;7.75;;;4.75;;
84723;SDS011;74944;52.322;16.918;2023-12-20T09:51:46;10.32;;;5.10;;
84723;SDS011;74944;52.322;16.918;2023-12-20T09:54:13;6.88;;;3.10;;
84723;SDS011;74944;52.322;16.918;2023-12-20T09:56:41;7.50;;;3.83;;
84723;SDS011;74944;52.322;16.918;2023-12-20T09:59:06;8.27;;;3.13;;
84723;SDS011;74944;52.322;16.918;2023-12-20T10:01:32;8.35;;;3.78;;
84723;SDS011;74944;52.322;16.918;2023-12-20T10:03:59;7.07;;;3.05;;
84723;SDS011;74944;52.322;16.918;2023-12-20T10:06:27;7.82;;;3.72;;
84723;SDS011;74944;52.322;16.918;2023-12-20T10:08:52;9.65;;;3.83;;
84723;SDS011;74944;52.322;16.918;2023-12-20T10:11:19;5.22;;;2.65;;
84723;SDS011;74944;52.322;16.918;2023-12-20T10:13:45;9.30;;;3.05;;
84723;SDS011;74944;52.322;16.918;2023-12-20T10:16:13;8.27;;;2.92;;
84723;SDS011;74944;52.322;16.918;2023-12-20T10:18:39;6.03;;;3.17;;
84723;SDS011;74944;52.322;16.918;2023-12-20T10:21:05;7.30;;;2.97;;
84723;SDS011;74944;52.322;16.918;2023-12-20T10:23:35;7.30;;;3.38;;
84723;SDS011;74944;52.322;16.918;2023-12-20T10:26:01;7.78;;;3.03;;
84723;SDS011;74944;52.322;16.918;2023-12-20T10:28:28;6.05;;;3.15;;
84723;SDS011;74944;52.322;16.918;2023-12-20T10:30:59;7.53;;;3.55;;
84723;SDS011;74944;52.322;16.918;2023-12-20T10:33:26;7.45;;;2.95;;
84723;SDS011;74944;52.322;16.918;2023-12-20T10:35:52;7.25;;;3.10;;
84723;SDS011;74944;52.322;16.918;2023-12-20T10:38:19;7.47;;;3.40;;
84723;SDS011;74944;52.322;16.918;2023-12-20T10:40:45;6.93;;;2.25;;
84723;SDS011;74944;52.322;16.918;2023-12-20T10:43:12;7.80;;;2.90;;
84723;SDS011;74944;52.322;16.918;2023-12-20T10:45:38;9.85;;;2.63;;
84723;SDS011;74944;52.322;16.918;2023-12-20T10:48:11;7.03;;;3.33;;
84723;SDS011;74944;52.322;16.918;2023-12-20T10:50:37;10.25;;;3.83;;
84723;SDS011;74944;52.322;16.918;2023-12-20T10:53:06;9.20;;;3.58;;
84723;SDS011;74944;52.322;16.918;2023-12-20T10:55:32;6.75;;;2.35;;
84723;SDS011;74944;52.322;16.918;2023-12-20T10:58:03;7.95;;;3.35;;
84723;SDS011;74944;52.322;16.918;2023-12-20T11:00:38;8.35;;;2.55;;
84723;SDS011;74944;52.322;16.918;2023-12-20T11:03:08;8.20;;;3.13;;
84723;SDS011;74944;52.322;16.918;2023-12-20T11:05:46;8.65;;;3.25;;
84723;SDS011;74944;52.322;16.918;2023-12-20T11:14:06;6.47;;;2.95;;
84723;SDS011;74944;52.322;16.918;2023-12-20T11:16:37;8.30;;;2.97;;
84723;SDS011;74944;52.322;16.918;2023-12-20T11:19:06;12.73;;;3.50;;
84723;SDS011;74944;52.322;16.918;2023-12-20T11:21:32;9.68;;;2.90;;
84723;SDS011;74944;52.322;16.918;2023-12-20T11:23:59;7.47;;;2.70;;
84723;SDS011;74944;52.322;16.918;2023-12-20T11:26:26;6.07;;;2.63;;
84723;SDS011;74944;52.322;16.918;2023-12-20T11:28:53;6.38;;;3.38;;
84723;SDS011;74944;52.322;16.918;2023-12-20T11:31:19;7.15;;;2.42;;
84723;SDS011;74944;52.322;16.918;2023-12-20T11:33:45;7.07;;;2.45;;
84723;SDS011;74944;52.322;16.918;2023-12-20T11:36:14;8.45;;;2.63;;
84723;SDS011;74944;52.322;16.918;2023-12-20T11:39:04;6.10;;;2.92;;
84723;SDS011;74944;52.322;16.918;2023-12-20T11:41:34;8.85;;;3.38;;
84723;SDS011;74944;52.322;16.918;2023-12-20T11:43:59;9.13;;;3.80;;
84723;SDS011;74944;52.322;16.918;2023-12-20T11:46:26;8.65;;;3.45;;
84723;SDS011;74944;52.322;16.918;2023-12-20T11:48:52;6.82;;;3.15;;
84723;SDS011;74944;52.322;16.918;2023-12-20T11:51:18;8.80;;;4.03;;
84723;SDS011;74944;52.322;16.918;2023-12-20T11:53:44;11.77;;;2.72;;
84723;SDS011;74944;52.322;16.918;2023-12-20T11:56:10;9.07;;;2.53;;
84723;SDS011;74944;52.322;16.918;2023-12-20T11:58:37;7.90;;;2.53;;
84723;SDS011;74944;52.322;16.918;2023-12-20T12:01:03;8.48;;;3.58;;
84723;SDS011;74944;52.322;16.918;2023-12-20T12:03:33;9.25;;;2.72;;
84723;SDS011;74944;52.322;16.918;2023-12-20T12:05:59;10.38;;;3.10;;
84723;SDS011;74944;52.322;16.918;2023-12-20T12:08:26;7.03;;;2.88;;
84723;SDS011;74944;52.322;16.918;2023-12-20T12:10:52;7.70;;;2.55;;
84723;SDS011;74944;52.322;16.918;2023-12-20T12:13:17;8.90;;;2.38;;
84723;SDS011;74944;52.322;16.918;2023-12-20T12:15:43;9.40;;;2.50;;
84723;SDS011;74944;52.322;16.918;2023-12-20T12:18:09;8.15;;;3.63;;
84723;SDS011;74944;52.322;16.918;2023-12-20T12:20:36;6.38;;;3.63;;
84723;SDS011;74944;52.322;16.918;2023-12-20T12:23:02;5.25;;;2.75;;
84723;SDS011;74944;52.322;16.918;2023-12-20T12:25:30;7.63;;;2.38;;
84723;SDS011;74944;52.322;16.918;2023-12-20T12:27:57;7.60;;;2.30;;
84723;SDS011;74944;52.322;16.918;2023-12-20T12:30:23;3.95;;;2.03;;
84723;SDS011;74944;52.322;16.918;2023-12-20T12:32:52;6.80;;;2.13;;
84723;SDS011;74944;52.322;16.918;2023-12-20T12:35:20;9.65;;;2.33;;
84723;SDS011;74944;52.322;16.918;2023-12-20T12:37:46;7.07;;;3.17;;
84723;SDS011;74944;52.322;16.918;2023-12-20T12:40:13;9.38;;;2.40;;
84723;SDS011;74944;52.322;16.918;2023-12-20T12:42:40;5.32;;;2.60;;
84723;SDS011;74944;52.322;16.918;2023-12-20T12:45:07;8.30;;;3.47;;
84723;SDS011;74944;52.322;16.918;2023-12-20T12:47:33;7.15;;;2.17;;
84723;SDS011;74944;52.322;16.918;2023-12-20T12:50:00;8.98;;;3.90;;
84723;SDS011;74944;52.322;16.918;2023-12-20T12:52:25;6.53;;;2.38;;
84723;SDS011;74944;52.322;16.918;2023-12-20T12:54:52;4.82;;;2.20;;
84723;SDS011;74944;52.322;16.918;2023-12-20T12:57:18;7.97;;;3.25;;
84723;SDS011;74944;52.322;16.918;2023-12-20T12:59:45;7.40;;;2.95;;
84723;SDS011;74944;52.322;16.918;2023-12-20T13:02:12;5.88;;;2.40;;
84723;SDS011;74944;52.322;16.918;2023-12-20T13:04:42;7.32;;;2.70;;
84723;SDS011;74944;52.322;16.918;2023-12-20T13:07:09;7.90;;;3.13;;
84723;SDS011;74944;52.322;16.918;2023-12-20T13:09:38;8.20;;;2.45;;
84723;SDS011;74944;52.322;16.918;2023-12-20T13:12:05;8.52;;;2.03;;
84723;SDS011;74944;52.322;16.918;2023-12-20T13:14:33;10.45;;;2.72;;
84723;SDS011;74944;52.322;16.918;2023-12-20T13:17:00;6.32;;;2.15;;
84723;SDS011;74944;52.322;16.918;2023-12-20T13:19:26;9.02;;;2.60;;
84723;SDS011;74944;52.322;16.918;2023-12-20T13:21:52;8.30;;;3.30;;
84723;SDS011;74944;52.322;16.918;2023-12-20T13:24:18;10.98;;;2.58;;
84723;SDS011;74944;52.322;16.918;2023-12-20T13:26:44;5.55;;;3.15;;
84723;SDS011;74944;52.322;16.918;2023-12-20T13:29:10;9.60;;;3.05;;
84723;SDS011;74944;52.322;16.918;2023-12-20T13:31:36;6.13;;;2.28;;
84723;SDS011;74944;52.322;16.918;2023-12-20T13:34:02;11.07;;;2.97;;
84723;SDS011;74944;52.322;16.918;2023-12-20T13:36:28;8.88;;;2.10;;
84723;SDS011;74944;52.322;16.918;2023-12-20T13:38:54;7.70;;;2.42;;
84723;SDS011;74944;52.322;16.918;2023-12-20T13:41:20;9.57;;;2.72;;
84723;SDS011;74944;52.322;16.918;2023-12-20T13:43:45;7.45;;;2.05;;
84723;SDS011;74944;52.322;16.918;2023-12-20T13:46:11;5.75;;;2.00;;
84723;SDS011;74944;52.322;16.918;2023-12-20T13:48:37;7.32;;;2.00;;
84723;SDS011;74944;52.322;16.918;2023-12-20T13:51:03;7.32;;;2.30;;
84723;SDS011;74944;52.322;16.918;2023-12-20T13:53:29;8.65;;;2.17;;
84723;SDS011;74944;52.322;16.918;2023-12-20T13:55:54;6.20;;;1.95;;
84723;SDS011;74944;52.322;16.918;2023-12-20T13:58:21;6.80;;;2.58;;
84723;SDS011;74944;52.322;16.918;2023-12-20T14:00:46;6.78;;;2.08;;
84723;SDS011;74944;52.322;16.918;2023-12-20T14:03:12;12.05;;;2.78;;
84723;SDS011;74944;52.322;16.918;2023-12-20T14:05:37;6.40;;;1.83;;
84723;SDS011;74944;52.322;16.918;2023-12-20T14:08:03;10.55;;;3.75;;
84723;SDS011;74944;52.322;16.918;2023-12-20T14:10:29;7.95;;;3.08;;
84723;SDS011;74944;52.322;16.918;2023-12-20T14:12:55;9.55;;;4.10;;
84723;SDS011;74944;52.322;16.918;2023-12-20T14:15:21;8.38;;;3.05;;
84723;SDS011;74944;52.322;16.918;2023-12-20T14:17:48;7.93;;;2.28;;
84723;SDS011;74944;52.322;16.918;2023-12-20T14:20:14;9.68;;;2.83;;
84723;SDS011;74944;52.322;16.918;2023-12-20T14:22:39;9.27;;;2.90;;
84723;SDS011;74944;52.322;16.918;2023-12-20T14:25:15;13.50;;;3.08;;
84723;SDS011;74944;52.322;16.918;2023-12-20T14:27:41;8.25;;;2.92;;
84723;SDS011;74944;52.322;16.918;2023-12-20T14:30:08;10.73;;;3.95;;